sensor_id;sensor_type;location;lat;lon;timestamp;pressure;altitude;pressure_sealevel;temperature;humidity
78590;BME280;67888;50.228;7.828;2024-03-29T00:02:27;97194.13;;;8.02;100.00
78590;BME280;67888;50.228;7.828;2024-03-29T00:07:27;97191.13;;;8.17;100.00
78590;BME280;67888;50.228;7.828;2024-03-29T00:12:28;97177.31;;;8.25;100.00
78590;BME280;67888;50.228;7.828;2024-03-29T00:17:28;97171.47;;;8.28;100.00
78590;BME280;67888;50.228;7.828;2024-03-29T00:22:28;97179.00;;;8.21;100.00
78590;BME280;67888;50.228;7.828;2024-03-29T00:27:29;97169.22;;;8.13;100.00
78590;BME280;67888;50.228;7.828;2024-03-29T00:32:30;97157.22;;;8.43;100.00
78590;BME280;67888;50.228;7.828;2024-03-29T00:37:31;97150.06;;;8.66;100.00
78590;BME280;67888;50.228;7.828;2024-03-29T00:42:31;97165.03;;;8.66;100.00
78590;BME280;67888;50.228;7.828;2024-03-29T00:47:32;97171.28;;;8.95;100.00
78590;BME280;67888;50.228;7.828;2024-03-29T00:52:33;97150.28;;;8.87;100.00
78590;BME280;67888;50.228;7.828;2024-03-29T00:57:33;97134.56;;;9.04;100.00
78590;BME280;67888;50.228;7.828;2024-03-29T01:02:33;97156.19;;;9.18;100.00
78590;BME280;67888;50.228;7.828;2024-03-29T01:07:34;97148.81;;;9.29;100.00
78590;BME280;67888;50.228;7.828;2024-03-29T01:12:37;97140.16;;;9.46;100.00
78590;BME280;67888;50.228;7.828;2024-03-29T01:17:39;97135.38;;;9.39;100.00
78590;BME280;67888;50.228;7.828;2024-03-29T01:22:40;97117.47;;;9.41;100.00
78590;BME280;67888;50.228;7.828;2024-03-29T01:27:40;97133.53;;;9.48;100.00
78590;BME280;67888;50.228;7.828;2024-03-29T01:32:40;97128.28;;;9.48;100.00
78590;BME280;67888;50.228;7.828;2024-03-29T01:37:41;97123.66;;;9.37;100.00
78590;BME280;67888;50.228;7.828;2024-03-29T01:42:41;97102.66;;;9.45;100.00
78590;BME280;67888;50.228;7.828;2024-03-29T01:47:41;97096.16;;;9.43;100.00
78590;BME280;67888;50.228;7.828;2024-03-29T01:52:42;97056.94;;;9.29;100.00
78590;BME280;67888;50.228;7.828;2024-03-29T01:57:43;97071.31;;;9.31;100.00
78590;BME280;67888;50.228;7.828;2024-03-29T02:02:44;97092.59;;;9.04;100.00
78590;BME280;67888;50.228;7.828;2024-03-29T02:07:45;97070.03;;;8.77;100.00
78590;BME280;67888;50.228;7.828;2024-03-29T02:12:48;97083.75;;;8.57;100.00
78590;BME280;67888;50.228;7.828;2024-03-29T02:17:48;97085.84;;;8.38;100.00
78590;BME280;67888;50.228;7.828;2024-03-29T02:22:58;97100.94;;;8.41;100.00
78590;BME280;67888;50.228;7.828;2024-03-29T02:28:01;97069.88;;;8.65;100.00
78590;BME280;67888;50.228;7.828;2024-03-29T02:33:04;97072.72;;;9.12;100.00
78590;BME280;67888;50.228;7.828;2024-03-29T02:38:04;97089.50;;;9.71;100.00
78590;BME280;67888;50.228;7.828;2024-03-29T02:43:05;97086.69;;;9.85;100.00
78590;BME280;67888;50.228;7.828;2024-03-29T02:48:06;97074.78;;;9.87;100.00
78590;BME280;67888;50.228;7.828;2024-03-29T02:53:06;97082.78;;;9.91;100.00
78590;BME280;67888;50.228;7.828;2024-03-29T02:58:07;97058.38;;;9.99;100.00
78590;BME280;67888;50.228;7.828;2024-03-29T03:03:07;97059.13;;;9.99;100.00
78590;BME280;67888;50.228;7.828;2024-03-29T03:08:07;97057.44;;;9.95;100.00
78590;BME280;67888;50.228;7.828;2024-03-29T03:13:27;97057.31;;;9.83;100.00
78590;BME280;67888;50.228;7.828;2024-03-29T03:18:28;97057.63;;;9.81;100.00
78590;BME280;67888;50.228;7.828;2024-03-29T03:23:29;97063.94;;;9.89;100.00
78590;BME280;67888;50.228;7.828;2024-03-29T03:28:29;97075.72;;;9.83;100.00
78590;BME280;67888;50.228;7.828;2024-03-29T03:33:30;97067.97;;;9.78;100.00
78590;BME280;67888;50.228;7.828;2024-03-29T03:38:31;97077.53;;;9.91;100.00
78590;BME280;67888;50.228;7.828;2024-03-29T03:43:31;97085.00;;;9.72;100.00
78590;BME280;67888;50.228;7.828;2024-03-29T03:48:31;97079.84;;;9.92;100.00
78590;BME280;67888;50.228;7.828;2024-03-29T03:53:32;97072.94;;;9.88;100.00
78590;BME280;67888;50.228;7.828;2024-03-29T03:58:32;97095.00;;;9.95;100.00
78590;BME280;67888;50.228;7.828;2024-03-29T04:03:33;97090.84;;;9.86;100.00
78590;BME280;67888;50.228;7.828;2024-03-29T04:08:33;97094.72;;;9.80;100.00
78590;BME280;67888;50.228;7.828;2024-03-29T04:13:33;97095.97;;;9.65;100.00
78590;BME280;67888;50.228;7.828;2024-03-29T04:18:34;97080.38;;;9.68;100.00
78590;BME280;67888;50.228;7.828;2024-03-29T04:23:35;97065.84;;;9.71;100.00
78590;BME280;67888;50.228;7.828;2024-03-29T04:28:36;97062.13;;;9.81;100.00
78590;BME280;67888;50.228;7.828;2024-03-29T04:33:37;97061.19;;;9.77;100.00
78590;BME280;67888;50.228;7.828;2024-03-29T04:38:37;97036.78;;;9.85;100.00
78590;BME280;67888;50.228;7.828;2024-03-29T04:43:37;97044.53;;;9.73;100.00
78590;BME280;67888;50.228;7.828;2024-03-29T04:48:39;97033.16;;;9.98;100.00
78590;BME280;67888;50.228;7.828;2024-03-29T04:53:40;97050.75;;;10.06;100.00
78590;BME280;67888;50.228;7.828;2024-03-29T04:58:41;97062.94;;;10.19;100.00
78590;BME280;67888;50.228;7.828;2024-03-29T05:03:42;97072.06;;;10.13;100.00
78590;BME280;67888;50.228;7.828;2024-03-29T05:08:43;97077.50;;;10.08;100.00
78590;BME280;67888;50.228;7.828;2024-03-29T05:13:43;97071.94;;;10.01;100.00
78590;BME280;67888;50.228;7.828;2024-03-29T05:18:45;97090.78;;;10.03;100.00
78590;BME280;67888;50.228;7.828;2024-03-29T05:23:45;97099.00;;;9.93;100.00
78590;BME280;67888;50.228;7.828;2024-03-29T05:28:45;97100.69;;;10.06;100.00
78590;BME280;67888;50.228;7.828;2024-03-29T05:33:46;97103.91;;;10.12;100.00
78590;BME280;67888;50.228;7.828;2024-03-29T05:38:46;97101.28;;;10.12;100.00
78590;BME280;67888;50.228;7.828;2024-03-29T05:43:47;97105.13;;;10.23;100.00
78590;BME280;67888;50.228;7.828;2024-03-29T05:48:47;97102.38;;;10.02;100.00
78590;BME280;67888;50.228;7.828;2024-03-29T05:53:47;97092.22;;;9.92;100.00
78590;BME280;67888;50.228;7.828;2024-03-29T05:58:48;97101.63;;;9.93;100.00
78590;BME280;67888;50.228;7.828;2024-03-29T06:03:49;97120.50;;;9.95;100.00
78590;BME280;67888;50.228;7.828;2024-03-29T06:08:51;97128.91;;;10.18;100.00
78590;BME280;67888;50.228;7.828;2024-03-29T06:13:52;97134.97;;;10.01;100.00
78590;BME280;67888;50.228;7.828;2024-03-29T06:18:52;97135.28;;;10.08;100.00
78590;BME280;67888;50.228;7.828;2024-03-29T06:23:53;97137.75;;;10.13;100.00
78590;BME280;67888;50.228;7.828;2024-03-29T06:28:53;97143.91;;;10.17;100.00
78590;BME280;67888;50.228;7.828;2024-03-29T06:33:54;97151.34;;;10.15;100.00
78590;BME280;67888;50.228;7.828;2024-03-29T06:38:54;97146.84;;;10.16;100.00
78590;BME280;67888;50.228;7.828;2024-03-29T06:43:55;97158.63;;;10.10;100.00
78590;BME280;67888;50.228;7.828;2024-03-29T06:48:55;97152.00;;;9.95;100.00
78590;BME280;67888;50.228;7.828;2024-03-29T06:53:56;97155.06;;;10.05;100.00
78590;BME280;67888;50.228;7.828;2024-03-29T06:58:56;97149.63;;;10.36;100.00
78590;BME280;67888;50.228;7.828;2024-03-29T07:03:56;97157.50;;;10.28;100.00
78590;BME280;67888;50.228;7.828;2024-03-29T07:08:57;97173.13;;;10.16;100.00
78590;BME280;67888;50.228;7.828;2024-03-29T07:13:57;97186.75;;;10.35;100.00
78590;BME280;67888;50.228;7.828;2024-03-29T07:18:57;97198.16;;;10.48;100.00
78590;BME280;67888;50.228;7.828;2024-03-29T07:23:58;97200.78;;;10.39;100.00
78590;BME280;67888;50.228;7.828;2024-03-29T07:28:58;97196.34;;;10.69;100.00
78590;BME280;67888;50.228;7.828;2024-03-29T07:33:59;97195.16;;;10.96;100.00
78590;BME280;67888;50.228;7.828;2024-03-29T07:39:00;97193.91;;;11.23;100.00
78590;BME280;67888;50.228;7.828;2024-03-29T07:44:01;97180.44;;;11.66;100.00
78590;BME280;67888;50.228;7.828;2024-03-29T07:49:03;97194.84;;;11.27;100.00
78590;BME280;67888;50.228;7.828;2024-03-29T07:54:04;97187.88;;;11.01;100.00
78590;BME280;67888;50.228;7.828;2024-03-29T07:59:04;97186.59;;;11.28;100.00
78590;BME280;67888;50.228;7.828;2024-03-29T08:04:05;97169.72;;;11.71;100.00
78590;BME280;67888;50.228;7.828;2024-03-29T08:09:05;97164.38;;;11.79;100.00
78590;BME280;67888;50.228;7.828;2024-03-29T08:14:06;97170.38;;;12.46;100.00
78590;BME280;67888;50.228;7.828;2024-03-29T08:19:07;97164.00;;;12.35;100.00
78590;BME280;67888;50.228;7.828;2024-03-29T08:24:08;97174.06;;;12.66;100.00
78590;BME280;67888;50.228;7.828;2024-03-29T08:29:08;97187.41;;;12.36;100.00
78590;BME280;67888;50.228;7.828;2024-03-29T08:34:09;97178.44;;;12.49;100.00
78590;BME280;67888;50.228;7.828;2024-03-29T08:39:13;97185.81;;;12.11;100.00
78590;BME280;67888;50.228;7.828;2024-03-29T08:44:13;97192.50;;;12.53;100.00
78590;BME280;67888;50.228;7.828;2024-03-29T08:49:14;97198.59;;;12.33;100.00
78590;BME280;67888;50.228;7.828;2024-03-29T08:54:14;97205.41;;;12.22;100.00
78590;BME280;67888;50.228;7.828;2024-03-29T08:59:15;97222.06;;;12.59;100.00
78590;BME280;67888;50.228;7.828;2024-03-29T09:04:16;97227.19;;;12.43;100.00
78590;BME280;67888;50.228;7.828;2024-03-29T09:09:16;97224.59;;;12.68;100.00
78590;BME280;67888;50.228;7.828;2024-03-29T09:14:17;97234.19;;;12.72;100.00
78590;BME280;67888;50.228;7.828;2024-03-29T09:19:17;97230.34;;;13.06;100.00
78590;BME280;67888;50.228;7.828;2024-03-29T09:24:18;97234.22;;;13.09;100.00
78590;BME280;67888;50.228;7.828;2024-03-29T09:29:19;97238.50;;;13.13;100.00
78590;BME280;67888;50.228;7.828;2024-03-29T09:34:22;97242.06;;;13.30;100.00
78590;BME280;67888;50.228;7.828;2024-03-29T09:39:23;97252.16;;;12.91;100.00
78590;BME280;67888;50.228;7.828;2024-03-29T09:44:25;97238.28;;;13.43;100.00
78590;BME280;67888;50.228;7.828;2024-03-29T09:49:27;97234.13;;;13.42;100.00
78590;BME280;67888;50.228;7.828;2024-03-29T09:54:31;97245.88;;;13.44;100.00
78590;BME280;67888;50.228;7.828;2024-03-29T09:59:32;97254.25;;;13.22;100.00
78590;BME280;67888;50.228;7.828;2024-03-29T10:04:35;97259.19;;;13.48;100.00
78590;BME280;67888;50.228;7.828;2024-03-29T10:09:36;97251.63;;;13.86;100.00
78590;BME280;67888;50.228;7.828;2024-03-29T10:14:47;97255.38;;;13.85;100.00
78590;BME280;67888;50.228;7.828;2024-03-29T10:20:00;97256.16;;;13.86;100.00
78590;BME280;67888;50.228;7.828;2024-03-29T10:25:00;97245.59;;;14.14;100.00
78590;BME280;67888;50.228;7.828;2024-03-29T10:30:01;97237.16;;;14.24;100.00
78590;BME280;67888;50.228;7.828;2024-03-29T10:35:02;97247.13;;;14.15;100.00
78590;BME280;67888;50.228;7.828;2024-03-29T10:40:06;97250.66;;;14.34;100.00
78590;BME280;67888;50.228;7.828;2024-03-29T10:45:07;97237.88;;;14.80;100.00
78590;BME280;67888;50.228;7.828;2024-03-29T10:50:08;97222.81;;;14.84;100.00
78590;BME280;67888;50.228;7.828;2024-03-29T10:55:10;97223.56;;;15.67;100.00
78590;BME280;67888;50.228;7.828;2024-03-29T11:00:13;97219.31;;;15.47;100.00
78590;BME280;67888;50.228;7.828;2024-03-29T11:05:21;97245.28;;;15.22;100.00
78590;BME280;67888;50.228;7.828;2024-03-29T11:10:33;97250.50;;;14.87;100.00
78590;BME280;67888;50.228;7.828;2024-03-29T11:15:37;97296.94;;;14.13;100.00
78590;BME280;67888;50.228;7.828;2024-03-29T11:20:39;97321.06;;;13.35;100.00
78590;BME280;67888;50.228;7.828;2024-03-29T11:30:49;97347.72;;;12.97;100.00
78590;BME280;67888;50.228;7.828;2024-03-29T11:35:50;97313.19;;;12.89;100.00
78590;BME280;67888;50.228;7.828;2024-03-29T11:40:54;97291.03;;;12.70;100.00
78590;BME280;67888;50.228;7.828;2024-03-29T11:45:58;97286.50;;;12.70;100.00
78590;BME280;67888;50.228;7.828;2024-03-29T11:51:00;97286.59;;;12.49;100.00
78590;BME280;67888;50.228;7.828;2024-03-29T11:56:02;97280.03;;;12.68;100.00
78590;BME280;67888;50.228;7.828;2024-03-29T12:01:03;97242.66;;;12.78;100.00
78590;BME280;67888;50.228;7.828;2024-03-29T12:06:04;97293.03;;;12.85;100.00
78590;BME280;67888;50.228;7.828;2024-03-29T12:11:05;97306.06;;;13.02;100.00
78590;BME280;67888;50.228;7.828;2024-03-29T12:16:07;97321.19;;;12.93;100.00
78590;BME280;67888;50.228;7.828;2024-03-29T12:21:08;97300.84;;;12.93;100.00
78590;BME280;67888;50.228;7.828;2024-03-29T12:26:10;97317.06;;;13.04;100.00
78590;BME280;67888;50.228;7.828;2024-03-29T12:31:10;97331.75;;;12.93;100.00
78590;BME280;67888;50.228;7.828;2024-03-29T12:36:11;97333.63;;;13.25;100.00
78590;BME280;67888;50.228;7.828;2024-03-29T12:41:12;97325.41;;;13.06;100.00
78590;BME280;67888;50.228;7.828;2024-03-29T12:46:13;97337.41;;;12.91;100.00
78590;BME280;67888;50.228;7.828;2024-03-29T12:51:14;97363.41;;;12.81;100.00
78590;BME280;67888;50.228;7.828;2024-03-29T12:56:19;97374.00;;;12.93;100.00
78590;BME280;67888;50.228;7.828;2024-03-29T13:01:20;97383.38;;;12.70;100.00
78590;BME280;67888;50.228;7.828;2024-03-29T13:06:20;97370.72;;;12.63;100.00
78590;BME280;67888;50.228;7.828;2024-03-29T13:11:20;97359.06;;;13.42;100.00
78590;BME280;67888;50.228;7.828;2024-03-29T13:16:21;97357.19;;;14.19;100.00
78590;BME280;67888;50.228;7.828;2024-03-29T13:21:21;97385.53;;;14.31;100.00
78590;BME280;67888;50.228;7.828;2024-03-29T13:26:22;97348.97;;;16.22;100.00
78590;BME280;67888;50.228;7.828;2024-03-29T13:31:22;97354.09;;;15.45;100.00
78590;BME280;67888;50.228;7.828;2024-03-29T13:36:24;97369.81;;;14.50;100.00
78590;BME280;67888;50.228;7.828;2024-03-29T13:41:24;97360.16;;;14.30;100.00
78590;BME280;67888;50.228;7.828;2024-03-29T13:46:24;97356.06;;;14.73;100.00
78590;BME280;67888;50.228;7.828;2024-03-29T13:51:25;97350.47;;;14.62;100.00
78590;BME280;67888;50.228;7.828;2024-03-29T13:56:25;97352.50;;;14.81;100.00
78590;BME280;67888;50.228;7.828;2024-03-29T14:01:26;97346.53;;;15.78;100.00
78590;BME280;67888;50.228;7.828;2024-03-29T14:06:26;97352.00;;;14.91;100.00
78590;BME280;67888;50.228;7.828;2024-03-29T14:11:27;97362.47;;;14.31;100.00
78590;BME280;67888;50.228;7.828;2024-03-29T14:16:27;97367.56;;;14.64;100.00
78590;BME280;67888;50.228;7.828;2024-03-29T14:21:28;97365.03;;;14.28;100.00
78590;BME280;67888;50.228;7.828;2024-03-29T14:26:28;97374.34;;;14.50;100.00
78590;BME280;67888;50.228;7.828;2024-03-29T14:31:28;97374.13;;;14.03;100.00
78590;BME280;67888;50.228;7.828;2024-03-29T14:36:29;97384.38;;;14.04;100.00
78590;BME280;67888;50.228;7.828;2024-03-29T14:41:32;97374.31;;;14.10;100.00
78590;BME280;67888;50.228;7.828;2024-03-29T14:46:35;97373.88;;;14.08;100.00
78590;BME280;67888;50.228;7.828;2024-03-29T14:51:36;97365.88;;;14.32;100.00
78590;BME280;67888;50.228;7.828;2024-03-29T14:56:37;97351.59;;;14.09;100.00
78590;BME280;67888;50.228;7.828;2024-03-29T15:01:37;97362.00;;;13.89;100.00
78590;BME280;67888;50.228;7.828;2024-03-29T15:06:38;97347.00;;;13.93;100.00
78590;BME280;67888;50.228;7.828;2024-03-29T15:11:38;97356.06;;;13.68;100.00
78590;BME280;67888;50.228;7.828;2024-03-29T15:16:39;97364.88;;;13.84;100.00
78590;BME280;67888;50.228;7.828;2024-03-29T15:21:39;97345.38;;;13.89;100.00
78590;BME280;67888;50.228;7.828;2024-03-29T15:26:41;97343.84;;;14.28;100.00
78590;BME280;67888;50.228;7.828;2024-03-29T15:31:41;97340.72;;;14.38;100.00
78590;BME280;67888;50.228;7.828;2024-03-29T15:36:43;97340.88;;;14.29;100.00
78590;BME280;67888;50.228;7.828;2024-03-29T15:41:44;97338.34;;;14.21;100.00
78590;BME280;67888;50.228;7.828;2024-03-29T15:46:44;97331.25;;;13.97;100.00
78590;BME280;67888;50.228;7.828;2024-03-29T15:51:45;97354.63;;;13.71;100.00
78590;BME280;67888;50.228;7.828;2024-03-29T15:56:45;97345.94;;;13.58;100.00
78590;BME280;67888;50.228;7.828;2024-03-29T16:01:47;97330.97;;;13.62;100.00
78590;BME280;67888;50.228;7.828;2024-03-29T16:06:47;97342.19;;;13.59;100.00
78590;BME280;67888;50.228;7.828;2024-03-29T16:11:48;97374.25;;;13.57;100.00
78590;BME280;67888;50.228;7.828;2024-03-29T16:16:48;97403.53;;;13.07;100.00
78590;BME280;67888;50.228;7.828;2024-03-29T16:21:49;97399.78;;;13.08;100.00
78590;BME280;67888;50.228;7.828;2024-03-29T16:26:49;97418.47;;;13.36;100.00
78590;BME280;67888;50.228;7.828;2024-03-29T16:31:49;97432.91;;;13.39;100.00
78590;BME280;67888;50.228;7.828;2024-03-29T16:36:50;97443.72;;;13.13;100.00
78590;BME280;67888;50.228;7.828;2024-03-29T16:41:50;97444.19;;;13.15;100.00
78590;BME280;67888;50.228;7.828;2024-03-29T16:46:51;97443.78;;;13.25;100.00
78590;BME280;67888;50.228;7.828;2024-03-29T16:51:51;97431.38;;;13.38;100.00
78590;BME280;67888;50.228;7.828;2024-03-29T16:56:52;97429.94;;;13.07;100.00
78590;BME280;67888;50.228;7.828;2024-03-29T17:01:52;97419.66;;;13.14;100.00
78590;BME280;67888;50.228;7.828;2024-03-29T17:06:53;97419.66;;;13.14;100.00
78590;BME280;67888;50.228;7.828;2024-03-29T17:11:53;97425.53;;;13.11;100.00
78590;BME280;67888;50.228;7.828;2024-03-29T17:16:54;97438.97;;;12.85;100.00
78590;BME280;67888;50.228;7.828;2024-03-29T17:21:56;97443.56;;;12.76;100.00
78590;BME280;67888;50.228;7.828;2024-03-29T17:26:58;97440.84;;;12.85;100.00
78590;BME280;67888;50.228;7.828;2024-03-29T17:31:59;97454.84;;;12.65;100.00
78590;BME280;67888;50.228;7.828;2024-03-29T17:37:00;97453.47;;;12.59;100.00
78590;BME280;67888;50.228;7.828;2024-03-29T17:42:00;97450.25;;;12.74;100.00
78590;BME280;67888;50.228;7.828;2024-03-29T17:47:02;97451.94;;;12.57;100.00
78590;BME280;67888;50.228;7.828;2024-03-29T17:52:03;97420.41;;;12.40;100.00
78590;BME280;67888;50.228;7.828;2024-03-29T17:57:04;97407.03;;;12.25;100.00
78590;BME280;67888;50.228;7.828;2024-03-29T18:02:05;97429.00;;;12.08;100.00
78590;BME280;67888;50.228;7.828;2024-03-29T18:07:05;97426.63;;;11.86;100.00
78590;BME280;67888;50.228;7.828;2024-03-29T18:12:06;97426.19;;;12.13;100.00
78590;BME280;67888;50.228;7.828;2024-03-29T18:17:06;97440.34;;;12.00;100.00
78590;BME280;67888;50.228;7.828;2024-03-29T18:22:07;97449.75;;;11.80;100.00
78590;BME280;67888;50.228;7.828;2024-03-29T18:27:07;97442.22;;;11.61;100.00
78590;BME280;67888;50.228;7.828;2024-03-29T18:32:08;97413.41;;;11.56;100.00
78590;BME280;67888;50.228;7.828;2024-03-29T18:37:08;97403.50;;;10.89;100.00
78590;BME280;67888;50.228;7.828;2024-03-29T18:42:08;97397.47;;;10.80;100.00
78590;BME280;67888;50.228;7.828;2024-03-29T18:47:09;97400.28;;;10.75;100.00
78590;BME280;67888;50.228;7.828;2024-03-29T18:52:09;97413.59;;;10.61;100.00
78590;BME280;67888;50.228;7.828;2024-03-29T18:57:10;97437.66;;;10.12;100.00
78590;BME280;67888;50.228;7.828;2024-03-29T19:02:10;97440.91;;;10.17;100.00
78590;BME280;67888;50.228;7.828;2024-03-29T19:07:10;97443.28;;;10.53;100.00
78590;BME280;67888;50.228;7.828;2024-03-29T19:12:11;97438.34;;;10.34;100.00
78590;BME280;67888;50.228;7.828;2024-03-29T19:17:11;97431.44;;;9.99;100.00
78590;BME280;67888;50.228;7.828;2024-03-29T19:22:12;97424.16;;;10.04;100.00
78590;BME280;67888;50.228;7.828;2024-03-29T19:27:13;97405.91;;;9.91;100.00
78590;BME280;67888;50.228;7.828;2024-03-29T19:32:13;97412.13;;;9.55;100.00
78590;BME280;67888;50.228;7.828;2024-03-29T19:37:14;97414.53;;;9.43;100.00
78590;BME280;67888;50.228;7.828;2024-03-29T19:42:14;97413.47;;;9.44;100.00
78590;BME280;67888;50.228;7.828;2024-03-29T19:47:15;97412.19;;;9.73;100.00
78590;BME280;67888;50.228;7.828;2024-03-29T19:52:15;97402.97;;;9.84;100.00
78590;BME280;67888;50.228;7.828;2024-03-29T19:57:15;97405.19;;;9.59;100.00
78590;BME280;67888;50.228;7.828;2024-03-29T20:02:16;97393.72;;;9.95;100.00
78590;BME280;67888;50.228;7.828;2024-03-29T20:07:17;97391.69;;;9.83;100.00
78590;BME280;67888;50.228;7.828;2024-03-29T20:12:17;97401.16;;;9.53;100.00
78590;BME280;67888;50.228;7.828;2024-03-29T20:17:18;97409.41;;;9.78;100.00
78590;BME280;67888;50.228;7.828;2024-03-29T20:22:18;97391.03;;;9.78;100.00
78590;BME280;67888;50.228;7.828;2024-03-29T20:27:19;97379.19;;;9.97;100.00
78590;BME280;67888;50.228;7.828;2024-03-29T20:32:19;97393.28;;;10.10;100.00
78590;BME280;67888;50.228;7.828;2024-03-29T20:37:21;97387.09;;;10.15;100.00
78590;BME280;67888;50.228;7.828;2024-03-29T20:42:22;97395.59;;;10.12;100.00
78590;BME280;67888;50.228;7.828;2024-03-29T20:47:24;97387.56;;;10.08;100.00
78590;BME280;67888;50.228;7.828;2024-03-29T20:52:24;97391.88;;;10.04;100.00
78590;BME280;67888;50.228;7.828;2024-03-29T20:57:25;97393.81;;;10.38;100.00
78590;BME280;67888;50.228;7.828;2024-03-29T21:02:26;97390.06;;;10.30;100.00
78590;BME280;67888;50.228;7.828;2024-03-29T21:07:45;97378.31;;;10.19;100.00
78590;BME280;67888;50.228;7.828;2024-03-29T21:12:47;97401.47;;;10.00;100.00
78590;BME280;67888;50.228;7.828;2024-03-29T21:17:47;97391.72;;;10.18;100.00
78590;BME280;67888;50.228;7.828;2024-03-29T21:22:48;97399.09;;;9.81;100.00
78590;BME280;67888;50.228;7.828;2024-03-29T21:27:48;97384.50;;;10.23;100.00
78590;BME280;67888;50.228;7.828;2024-03-29T21:32:49;97375.94;;;9.92;100.00
78590;BME280;67888;50.228;7.828;2024-03-29T21:37:49;97364.25;;;10.24;100.00
78590;BME280;67888;50.228;7.828;2024-03-29T21:42:50;97359.72;;;9.98;100.00
78590;BME280;67888;50.228;7.828;2024-03-29T21:47:50;97364.50;;;9.88;100.00
78590;BME280;67888;50.228;7.828;2024-03-29T21:52:50;97373.59;;;9.73;100.00
78590;BME280;67888;50.228;7.828;2024-03-29T21:57:51;97343.66;;;10.00;100.00
78590;BME280;67888;50.228;7.828;2024-03-29T22:02:53;97337.59;;;9.91;100.00
78590;BME280;67888;50.228;7.828;2024-03-29T22:07:53;97326.63;;;9.80;100.00
78590;BME280;67888;50.228;7.828;2024-03-29T22:12:53;97328.44;;;9.62;100.00
78590;BME280;67888;50.228;7.828;2024-03-29T22:17:54;97329.00;;;9.42;100.00
78590;BME280;67888;50.228;7.828;2024-03-29T22:22:54;97330.34;;;9.31;100.00
78590;BME280;67888;50.228;7.828;2024-03-29T22:27:55;97342.28;;;9.06;100.00
78590;BME280;67888;50.228;7.828;2024-03-29T22:32:55;97351.53;;;9.34;100.00
78590;BME280;67888;50.228;7.828;2024-03-29T22:37:57;97340.47;;;9.63;100.00
78590;BME280;67888;50.228;7.828;2024-03-29T22:42:57;97336.75;;;9.47;100.00
78590;BME280;67888;50.228;7.828;2024-03-29T22:47:58;97361.88;;;9.40;100.00
78590;BME280;67888;50.228;7.828;2024-03-29T22:52:58;97343.28;;;9.67;100.00
78590;BME280;67888;50.228;7.828;2024-03-29T22:57:59;97342.06;;;9.82;100.00
78590;BME280;67888;50.228;7.828;2024-03-29T23:02:59;97338.91;;;9.45;100.00
78590;BME280;67888;50.228;7.828;2024-03-29T23:08:00;97350.97;;;9.55;100.00
78590;BME280;67888;50.228;7.828;2024-03-29T23:13:01;97339.31;;;9.87;100.00
78590;BME280;67888;50.228;7.828;2024-03-29T23:18:01;97331.56;;;9.73;100.00
78590;BME280;67888;50.228;7.828;2024-03-29T23:23:01;97331.03;;;9.54;100.00
78590;BME280;67888;50.228;7.828;2024-03-29T23:28:04;97326.13;;;9.69;100.00
78590;BME280;67888;50.228;7.828;2024-03-29T23:33:05;97324.59;;;9.68;100.00
78590;BME280;67888;50.228;7.828;2024-03-29T23:38:05;97334.25;;;9.42;100.00
78590;BME280;67888;50.228;7.828;2024-03-29T23:43:08;97319.03;;;9.79;100.00
78590;BME280;67888;50.228;7.828;2024-03-29T23:48:09;97337.78;;;9.38;100.00
78590;BME280;67888;50.228;7.828;2024-03-29T23:53:09;97347.44;;;9.20;100.00
78590;BME280;67888;50.228;7.828;2024-03-29T23:58:09;97345.19;;;9.36;100.00
